LIBQ  Monte Scuro  Airport

Italy

Add Bookmark
ICAO LIBQ
Type Airport
Status Operational
Latitude
39° 19' 12" N
39.320000
Longitude
16° 22' 47" E
16.380000
Local (GMT +2 ) UTC
May 1, 2016 10:02 am May 1, 2016 08:02
Sunrise-Sunset Local UTC
Begin Civil Twilight 05:24 am 03:24
Sunrise 05:53 am 03:53
Sunset 07:49 pm 17:49
End Civil Twilight 08:18 pm 18:18
VFR
VFR
MVFR
MVFR
IFR
IFR
LIFR
LIFR
Unknown
Unavailable

Current Weather

METAR Observed LIFR
LIBQ 010655Z 27010KT 0000 FG VV/// 05/04 Q1012 Sun, May 1, 2016 @ 06:55 UTC
(1 Hour, 7 Minutes ago)
Low Instrument Flight Rules
Wind Visibility Conditions
270° at 10 knots (19 kph) 0 m
  • Fog
Temperatures Readings Precipitation
Current Temp
5°C
41°F
Dewpoint
4°C
39°F
Humidity 93%
Altimeter 29.88" Hg
Sea Level Pressure 1,012 mb
Field Elevation
1,720 m
5,643 ft
None Recorded

Additional weather within a 92.6km radius of LIBQ

Map ICAO Location
LICA 47.6km S/SW (195°)
LIBC 70.2km E/SE (121°)
VFR
VFR
MVFR
MVFR
IFR
IFR
LIFR
LIFR
Unknown
Unavailable
-
-

CheckWX.com is intended as a tool to help pilots better visualize weather data. It is not intended as a substitute for an official weather briefing obtained from a Flight Service Station. CheckWX.com does not meet the FAA requirements for an official pre-flight weather briefing. Therefore, it's important that pilots still call and obtain an official FSS pre-flight weather briefing.

© 2007-2016 CheckWX.com
08:02:58 UTC